Time;durP1;ratioP1;P1;durP2;ratioP2;P2;SDS_P1;SDS_P2;PMS_P1;PMS_P2;Temp;Humidity;BMP_temperature;BMP_pressure;BME280_temperature;BME280_humidity;BME280_pressure;Samples;Min_cycle;Max_cycle;Signal;HPM_P1;HPM_P2
2021/07/17 00:01:32;;;;;;;14.55;13.15;;;26.70;82.00;;;;;;5034413;28;20108;-69
2021/07/17 00:03:57;;;;;;;17.00;13.57;;;26.70;82.30;;;;;;5021554;28;20017;-69
2021/07/17 00:06:23;;;;;;;17.05;13.48;;;26.60;82.50;;;;;;5035133;28;20028;-69
2021/07/17 00:08:50;;;;;;;15.05;12.65;;;26.60;82.80;;;;;;5034748;28;20025;-69
2021/07/17 00:11:17;;;;;;;14.35;12.85;;;26.60;83.00;;;;;;5034185;28;20056;-69
2021/07/17 00:13:43;;;;;;;15.05;13.38;;;26.60;83.20;;;;;;5034300;28;20042;-70
2021/07/17 00:16:09;;;;;;;14.25;12.70;;;26.60;83.50;;;;;;5032190;28;20029;-69
2021/07/17 00:18:34;;;;;;;16.20;12.77;;;26.60;83.50;;;;;;5034857;28;20104;-69
2021/07/17 00:21:00;;;;;;;14.07;12.57;;;26.60;83.50;;;;;;5031523;28;20030;-69
2021/07/17 00:23:26;;;;;;;12.77;11.48;;;26.60;82.90;;;;;;5021758;28;20026;-69
2021/07/17 00:25:55;;;;;;;13.57;11.32;;;26.50;82.20;;;;;;5030271;28;20079;-70
2021/07/17 00:28:20;;;;;;;12.35;10.52;;;26.50;81.80;;;;;;5033870;28;20721;-69
2021/07/17 00:30:47;;;;;;;11.27;10.07;;;26.50;81.30;;;;;;5035492;28;20025;-69
2021/07/17 00:33:13;;;;;;;12.98;11.68;;;26.50;81.30;;;;;;5030418;28;20092;-69
2021/07/17 00:35:38;;;;;;;13.77;12.38;;;26.50;81.40;;;;;;5034889;28;20405;-69
2021/07/17 00:38:05;;;;;;;15.77;12.45;;;26.50;81.70;;;;;;5034342;28;20034;-69
2021/07/17 00:40:32;;;;;;;14.05;12.07;;;26.50;81.90;;;;;;5031394;28;20457;-69
2021/07/17 00:42:58;;;;;;;13.93;12.48;;;26.50;81.80;;;;;;5033864;28;20025;-69
2021/07/17 00:45:23;;;;;;;16.52;12.32;;;26.40;82.00;;;;;;5035098;28;20029;-69
2021/07/17 00:47:50;;;;;;;14.82;12.90;;;26.40;82.10;;;;;;5035189;28;20366;-69
2021/07/17 00:50:18;;;;;;;13.25;11.95;;;26.40;82.20;;;;;;5029859;28;20026;-69
2021/07/17 00:52:43;;;;;;;14.23;12.73;;;26.40;82.30;;;;;;5034275;28;20343;-69
2021/07/17 00:55:10;;;;;;;14.35;12.85;;;26.40;82.60;;;;;;5033675;28;20083;-69
2021/07/17 00:57:38;;;;;;;14.15;12.68;;;26.40;82.60;;;;;;5033261;28;20026;-69
2021/07/17 01:00:07;;;;;;;13.13;11.77;;;26.40;82.70;;;;;;5034215;28;20064;-69
2021/07/17 01:02:54;;;;;;;14.88;12.98;;;26.40;82.80;;;;;;5030665;28;20033;-69
2021/07/17 01:05:20;;;;;;;13.50;11.95;;;26.40;82.60;;;;;;5033297;28;20156;-69
2021/07/17 01:07:46;;;;;;;14.45;13.05;;;26.40;82.70;;;;;;5031772;28;20611;-69
2021/07/17 01:10:13;;;;;;;14.60;13.07;;;26.40;82.80;;;;;;5030299;28;20026;-69
2021/07/17 01:12:39;;;;;;;15.65;13.27;;;26.40;83.10;;;;;;5032000;28;20513;-69
2021/07/17 01:15:06;;;;;;;14.07;12.50;;;26.40;83.30;;;;;;5034016;28;20021;-69
2021/07/17 01:17:32;;;;;;;15.15;13.55;;;26.40;83.70;;;;;;5032931;28;20049;-69
2021/07/17 01:19:58;;;;;;;15.45;13.35;;;26.40;83.80;;;;;;5025526;28;20121;-69
2021/07/17 01:22:24;;;;;;;13.98;12.48;;;26.40;83.90;;;;;;5032851;28;20137;-69
2021/07/17 01:24:51;;;;;;;15.15;13.63;;;26.40;84.00;;;;;;5032499;28;20025;-69
2021/07/17 01:27:17;;;;;;;15.27;13.68;;;26.30;84.00;;;;;;5032443;28;20120;-69
2021/07/17 01:29:44;;;;;;;15.85;14.15;;;26.30;84.10;;;;;;5033145;28;20033;-69
2021/07/17 01:32:10;;;;;;;15.30;13.48;;;26.30;84.20;;;;;;5031835;28;20057;-69
2021/07/17 01:34:36;;;;;;;16.25;14.00;;;26.40;84.10;;;;;;5033698;28;20433;-69
2021/07/17 01:37:02;;;;;;;16.50;13.70;;;26.30;84.10;;;;;;5030726;28;20040;-69
2021/07/17 01:39:28;;;;;;;15.68;13.63;;;26.30;84.00;;;;;;5032229;28;20030;-69
2021/07/17 01:41:54;;;;;;;18.15;14.90;;;26.20;83.90;;;;;;5031946;28;20493;-69
2021/07/17 01:44:19;;;;;;;16.10;14.38;;;26.30;84.00;;;;;;5032804;28;20046;-69
2021/07/17 01:46:46;;;;;;;19.58;14.02;;;26.30;84.30;;;;;;5032194;28;20450;-69
2021/07/17 01:49:12;;;;;;;15.68;13.70;;;26.20;84.40;;;;;;5032788;28;20022;-69
2021/07/17 01:51:38;;;;;;;16.23;14.52;;;26.20;84.50;;;;;;5033512;28;20026;-69
2021/07/17 01:54:04;;;;;;;16.70;14.35;;;26.20;84.70;;;;;;5029815;28;20041;-68
2021/07/17 01:56:30;;;;;;;16.48;14.80;;;26.20;84.90;;;;;;5023944;28;20030;-69
2021/07/17 01:58:56;;;;;;;15.35;13.75;;;26.10;84.90;;;;;;5031715;28;20022;-69
2021/07/17 02:01:23;;;;;;;16.20;14.43;;;26.20;85.20;;;;;;5032353;28;20040;-68
2021/07/17 02:03:50;;;;;;;17.75;14.15;;;26.10;85.10;;;;;;5021955;28;20036;-68
2021/07/17 02:06:23;;;;;;;16.48;14.75;;;26.10;85.20;;;;;;5033115;28;20096;-68
2021/07/17 02:08:49;;;;;;;17.42;15.13;;;26.20;85.20;;;;;;5032113;28;20013;-69
2021/07/17 02:11:15;;;;;;;16.48;14.65;;;26.10;85.30;;;;;;5031426;28;20034;-69
2021/07/17 02:13:41;;;;;;;15.27;13.57;;;26.10;85.30;;;;;;5029060;28;20048;-69
2021/07/17 02:16:06;;;;;;;15.13;13.50;;;26.10;85.80;;;;;;5031929;28;20026;-69
2021/07/17 02:18:35;;;;;;;15.13;13.57;;;26.10;85.00;;;;;;5030883;28;20034;-69
2021/07/17 02:21:03;;;;;;;15.80;14.00;;;26.10;84.80;;;;;;5032711;28;20073;-69
2021/07/17 02:23:29;;;;;;;15.25;13.68;;;26.00;84.80;;;;;;5023468;28;20381;-69
2021/07/17 02:25:55;;;;;;;15.07;13.07;;;26.00;85.00;;;;;;5031172;28;20022;-69
2021/07/17 02:28:20;;;;;;;15.20;13.70;;;26.00;84.80;;;;;;5031478;28;20022;-69
2021/07/17 02:30:47;;;;;;;15.35;13.75;;;26.00;84.70;;;;;;5031425;28;20025;-69
2021/07/17 02:33:13;;;;;;;15.35;13.13;;;26.00;84.70;;;;;;5034541;28;20045;-69
2021/07/17 02:35:39;;;;;;;16.13;13.55;;;26.00;84.60;;;;;;5037048;28;20363;-69
2021/07/17 02:38:05;;;;;;;14.35;12.95;;;26.00;84.60;;;;;;5035394;28;20064;-69
2021/07/17 02:40:31;;;;;;;15.38;13.77;;;26.00;84.60;;;;;;5035146;28;20065;-69
2021/07/17 02:42:57;;;;;;;14.32;12.82;;;26.00;84.80;;;;;;5025174;28;20541;-69
2021/07/17 02:45:22;;;;;;;15.85;14.23;;;26.00;84.90;;;;;;5035372;28;20037;-69
2021/07/17 02:47:48;;;;;;;15.05;13.50;;;26.00;85.10;;;;;;5035411;28;20021;-69
2021/07/17 02:50:14;;;;;;;15.75;14.00;;;26.00;85.10;;;;;;5036694;28;20017;-69
2021/07/17 02:52:40;;;;;;;16.40;14.50;;;26.10;85.30;;;;;;5036713;28;20026;-69
2021/07/17 02:55:06;;;;;;;15.23;13.77;;;26.10;85.40;;;;;;5033362;28;20377;-69
2021/07/17 02:57:32;;;;;;;16.33;14.68;;;26.10;85.50;;;;;;5036578;28;20029;-69
2021/07/17 02:59:58;;;;;;;15.90;14.30;;;26.10;85.50;;;;;;5034883;28;20382;-69
2021/07/17 03:02:25;;;;;;;15.25;13.40;;;26.10;85.50;;;;;;5027810;28;20021;-69
2021/07/17 03:04:50;;;;;;;15.13;13.50;;;26.20;86.30;;;;;;5034351;28;20473;-69
2021/07/17 03:07:16;;;;;;;14.98;13.50;;;26.20;85.50;;;;;;5036106;28;20067;-69
2021/07/17 03:09:42;;;;;;;16.00;14.10;;;26.20;85.40;;;;;;5026222;28;20021;-69
2021/07/17 03:12:08;;;;;;;15.88;14.38;;;26.20;85.30;;;;;;5017450;28;20516;-69
2021/07/17 03:14:33;;;;;;;15.60;14.00;;;26.30;85.20;;;;;;5033284;28;20477;-69
2021/07/17 03:17:00;;;;;;;15.38;13.77;;;26.30;85.10;;;;;;5035372;28;20084;-69
2021/07/17 03:19:25;;;;;;;15.50;13.75;;;26.40;84.90;;;;;;5016310;28;20095;-69
2021/07/17 03:21:51;;;;;;;15.43;13.85;;;26.40;84.50;;;;;;5035491;28;20025;-69
2021/07/17 03:24:17;;;;;;;15.13;13.52;;;26.40;84.50;;;;;;5033918;28;20026;-68
2021/07/17 03:26:43;;;;;;;14.02;12.63;;;26.50;84.50;;;;;;5033870;28;20030;-68
2021/07/17 03:29:08;;;;;;;14.65;13.18;;;26.60;84.60;;;;;;5034826;28;20416;-69
2021/07/17 03:31:34;;;;;;;14.45;12.80;;;26.70;84.60;;;;;;5029232;28;20148;-69
2021/07/17 03:34:01;;;;;;;14.63;13.13;;;26.80;84.60;;;;;;5023529;28;20029;-69
2021/07/17 03:36:28;;;;;;;15.57;13.77;;;26.90;84.70;;;;;;5031681;28;20036;-68
2021/07/17 03:38:53;;;;;;;14.55;13.05;;;27.10;84.80;;;;;;5023447;28;20072;-68
2021/07/17 03:41:19;;;;;;;13.48;12.07;;;27.30;84.40;;;;;;5033276;28;20033;-68
2021/07/17 03:43:46;;;;;;;15.25;13.57;;;27.50;84.10;;;;;;5030123;28;20033;-68
2021/07/17 03:46:12;;;;;;;13.95;12.45;;;27.80;83.60;;;;;;5015947;28;20026;-68
2021/07/17 03:48:37;;;;;;;14.65;13.23;;;28.20;82.90;;;;;;5020000;28;20465;-68
2021/07/17 03:51:04;;;;;;;14.65;12.60;;;28.60;81.70;;;;;;5035236;28;20461;-68
2021/07/17 03:53:30;;;;;;;12.82;11.48;;;29.00;80.40;;;;;;5034302;28;20057;-68
2021/07/17 03:55:56;;;;;;;14.13;12.82;;;29.60;78.90;;;;;;5020977;28;20064;-68
2021/07/17 03:58:22;;;;;;;12.93;11.70;;;30.20;76.90;;;;;;5034180;28;20496;-68
2021/07/17 04:00:48;;;;;;;13.10;11.82;;;30.90;75.10;;;;;;5034824;28;20121;-68
2021/07/17 04:03:14;;;;;;;12.98;11.77;;;31.70;73.60;;;;;;5016925;28;20124;-68
2021/07/17 04:05:40;;;;;;;12.60;11.30;;;32.40;70.80;;;;;;5018929;28;20018;-68
2021/07/17 04:08:06;;;;;;;12.48;11.38;;;33.10;68.70;;;;;;5031308;28;20124;-68
2021/07/17 04:10:31;;;;;;;12.10;10.95;;;33.70;66.90;;;;;;5027189;28;20385;-68
2021/07/17 04:12:57;;;;;;;13.23;11.63;;;34.30;65.50;;;;;;5033956;28;20082;-68
2021/07/17 04:15:23;;;;;;;12.07;10.98;;;34.90;64.80;;;;;;5033472;28;20056;-68
2021/07/17 04:17:49;;;;;;;12.55;11.20;;;35.40;62.70;;;;;;5034986;28;20029;-68
2021/07/17 04:20:15;;;;;;;12.23;11.13;;;35.90;61.60;;;;;;5032652;28;20135;-68
2021/07/17 04:22:41;;;;;;;12.52;11.35;;;36.40;60.60;;;;;;5034972;28;20029;-68
2021/07/17 04:25:08;;;;;;;11.00;10.10;;;36.90;59.60;;;;;;5034035;28;20386;-68
2021/07/17 04:27:34;;;;;;;12.23;10.65;;;37.30;58.80;;;;;;5032457;28;20053;-68
2021/07/17 04:30:00;;;;;;;9.70;8.68;;;37.80;58.10;;;;;;5034168;28;20044;-68
2021/07/17 04:32:26;;;;;;;9.07;8.23;;;38.10;56.60;;;;;;5034017;28;20017;-68
2021/07/17 04:34:51;;;;;;;9.98;8.98;;;38.60;55.50;;;;;;5034576;28;20080;-68
2021/07/17 04:37:18;;;;;;;8.45;7.65;;;38.90;54.80;;;;;;5034284;28;20429;-68
2021/07/17 04:39:45;;;;;;;8.85;7.82;;;39.30;53.90;;;;;;5033968;28;20025;-68
2021/07/17 04:42:11;;;;;;;8.55;7.57;;;39.70;53.10;;;;;;5033462;28;20040;-68
2021/07/17 04:44:37;;;;;;;8.48;7.60;;;40.00;52.30;;;;;;5032576;28;20473;-68
2021/07/17 04:47:03;;;;;;;7.68;6.88;;;40.30;51.40;;;;;;5033320;28;20562;-68
2021/07/17 04:49:29;;;;;;;7.82;7.05;;;40.60;50.80;;;;;;5033912;28;20492;-69
2021/07/17 04:51:54;;;;;;;8.85;7.35;;;40.90;50.40;;;;;;5034478;28;20029;-69
2021/07/17 04:54:20;;;;;;;8.05;7.35;;;41.10;49.80;;;;;;5031446;28;20026;-68
2021/07/17 04:56:46;;;;;;;9.20;7.22;;;41.30;49.20;;;;;;5034402;28;20056;-68
2021/07/17 04:59:12;;;;;;;7.75;7.05;;;41.50;48.60;;;;;;5031879;28;20370;-68
2021/07/17 05:01:38;;;;;;;8.50;7.65;;;41.70;48.40;;;;;;5032730;28;20026;-68
2021/07/17 05:04:03;;;;;;;9.07;7.28;;;41.90;47.60;;;;;;5033274;28;20032;-69
2021/07/17 05:06:29;;;;;;;7.32;6.72;;;42.00;47.30;;;;;;5034149;28;20382;-69
2021/07/17 05:08:55;;;;;;;7.88;7.07;;;42.10;46.80;;;;;;5032570;28;20484;-68
2021/07/17 05:11:20;;;;;;;8.18;7.22;;;42.30;46.50;;;;;;5033253;28;20049;-68
2021/07/17 05:13:46;;;;;;;7.72;6.93;;;42.40;46.10;;;;;;5031761;28;20394;-68
2021/07/17 05:16:12;;;;;;;7.32;6.72;;;42.50;45.90;;;;;;5032995;28;20565;-68
2021/07/17 05:18:38;;;;;;;7.53;6.82;;;42.60;45.70;;;;;;5033063;28;20035;-68
2021/07/17 05:21:04;;;;;;;9.38;7.25;;;42.60;45.40;;;;;;5033886;28;20060;-68
2021/07/17 05:23:29;;;;;;;7.68;6.97;;;42.60;45.30;;;;;;5032664;28;20381;-68
2021/07/17 05:25:56;;;;;;;7.63;6.93;;;42.60;45.00;;;;;;5033147;28;20370;-68
2021/07/17 05:28:22;;;;;;;8.05;7.25;;;42.60;44.70;;;;;;5032049;28;20786;-68
2021/07/17 05:30:49;;;;;;;7.65;6.95;;;42.40;44.60;;;;;;5032122;28;20100;-68
2021/07/17 05:33:15;;;;;;;8.52;7.80;;;42.00;44.80;;;;;;5022489;28;20435;-68
2021/07/17 05:35:40;;;;;;;8.27;7.47;;;41.40;45.30;;;;;;5033698;28;20037;-68
2021/07/17 05:38:06;;;;;;;8.48;7.68;;;40.70;46.10;;;;;;5033020;28;20075;-68
2021/07/17 05:40:32;;;;;;;8.32;7.63;;;39.90;46.80;;;;;;5030932;28;20042;-68
2021/07/17 05:42:58;;;;;;;8.55;7.75;;;39.10;47.70;;;;;;5032886;28;20040;-68
2021/07/17 05:45:24;;;;;;;8.88;8.00;;;38.30;48.60;;;;;;5032991;28;20386;-68
2021/07/17 05:47:50;;;;;;;9.65;8.65;;;37.60;49.70;;;;;;5033488;28;20022;-68
2021/07/17 05:50:18;;;;;;;10.07;7.70;;;37.00;50.70;;;;;;5031759;28;20036;-68
2021/07/17 05:52:43;;;;;;;9.80;8.57;;;36.40;51.60;;;;;;5019839;28;20018;-68
2021/07/17 05:55:09;;;;;;;9.40;8.40;;;35.90;52.60;;;;;;5026793;28;20413;-68
2021/07/17 05:57:35;;;;;;;9.88;8.88;;;35.50;53.40;;;;;;5033309;28;20473;-68
2021/07/17 06:00:02;;;;;;;9.20;8.30;;;35.20;53.80;;;;;;5032923;28;20105;-68
2021/07/17 06:02:27;;;;;;;9.63;8.30;;;34.80;54.30;;;;;;5033346;28;20021;-68
2021/07/17 06:04:53;;;;;;;9.77;8.88;;;34.60;55.20;;;;;;5018702;28;20034;-68
2021/07/17 06:07:20;;;;;;;9.73;8.82;;;34.30;55.60;;;;;;5027532;28;20092;-68
2021/07/17 06:09:46;;;;;;;10.05;9.05;;;34.10;56.30;;;;;;5030765;28;20025;-68
2021/07/17 06:12:12;;;;;;;10.75;9.65;;;33.90;56.60;;;;;;5032438;28;20045;-68
2021/07/17 06:14:39;;;;;;;10.52;8.95;;;33.70;57.10;;;;;;5031298;28;20037;-68
2021/07/17 06:17:06;;;;;;;11.45;10.20;;;33.50;57.60;;;;;;5025062;28;20029;-68
2021/07/17 06:19:32;;;;;;;10.13;9.13;;;33.40;58.30;;;;;;5032363;28;20608;-68
2021/07/17 06:21:57;;;;;;;10.20;9.13;;;33.20;58.70;;;;;;5032387;28;20116;-68
2021/07/17 06:24:23;;;;;;;10.63;9.55;;;33.10;59.20;;;;;;5030096;28;20377;-68
2021/07/17 06:26:49;;;;;;;10.05;9.05;;;33.00;59.30;;;;;;5031738;28;20029;-68
2021/07/17 06:29:14;;;;;;;10.70;9.60;;;33.00;59.70;;;;;;5031668;28;20036;-68
2021/07/17 06:31:40;;;;;;;11.18;9.75;;;32.90;59.80;;;;;;5030549;28;20053;-68
2021/07/17 06:34:05;;;;;;;10.70;9.70;;;32.80;60.00;;;;;;5030606;28;20104;-68
2021/07/17 06:36:31;;;;;;;10.70;9.52;;;32.70;60.20;;;;;;5032422;28;20029;-68
2021/07/17 06:38:57;;;;;;;10.52;9.45;;;32.60;60.50;;;;;;5031900;28;20480;-68
2021/07/17 06:41:23;;;;;;;10.95;9.93;;;32.50;60.50;;;;;;5028762;28;20025;-69
2021/07/17 06:43:50;;;;;;;11.60;10.40;;;32.50;60.80;;;;;;5031002;28;20116;-69
2021/07/17 06:46:15;;;;;;;10.77;9.75;;;32.40;61.00;;;;;;5031633;28;20405;-69
2021/07/17 06:48:41;;;;;;;11.05;9.95;;;32.30;61.50;;;;;;5031106;28;20022;-68
2021/07/17 06:51:08;;;;;;;11.48;10.18;;;32.30;61.70;;;;;;5031199;28;20044;-68
2021/07/17 06:53:35;;;;;;;10.85;9.63;;;32.20;62.40;;;;;;5029308;28;20024;-68
2021/07/17 06:56:01;;;;;;;12.25;9.95;;;32.20;61.90;;;;;;5031515;28;20035;-69
2021/07/17 06:58:27;;;;;;;11.68;10.48;;;32.20;62.10;;;;;;5029934;28;20025;-68
2021/07/17 07:00:53;;;;;;;11.23;10.10;;;32.10;62.40;;;;;;5032315;28;20053;-68
2021/07/17 07:03:18;;;;;;;11.50;10.30;;;32.10;62.50;;;;;;5031344;28;20033;-68
2021/07/17 07:05:44;;;;;;;11.70;10.27;;;32.10;62.60;;;;;;5030754;28;20469;-68
2021/07/17 07:08:10;;;;;;;11.70;10.43;;;32.10;62.60;;;;;;5030551;28;20025;-69
2021/07/17 07:10:36;;;;;;;11.52;10.25;;;32.10;62.50;;;;;;5029920;28;20512;-68
2021/07/17 07:13:12;;;;;;;11.73;10.57;;;32.10;62.50;;;;;;5029393;28;20056;-68
2021/07/17 07:15:38;;;;;;;10.63;9.63;;;32.00;62.60;;;;;;5031560;28;20378;-68
2021/07/17 07:18:05;;;;;;;11.15;10.05;;;32.00;62.80;;;;;;5035247;28;20029;-68
2021/07/17 07:20:30;;;;;;;10.85;9.75;;;32.00;63.00;;;;;;5020435;28;20410;-68
2021/07/17 07:22:56;;;;;;;11.98;10.40;;;32.00;63.20;;;;;;5030420;28;20021;-68
2021/07/17 07:25:22;;;;;;;11.27;10.07;;;32.00;63.40;;;;;;5033156;28;20026;-68
2021/07/17 07:27:48;;;;;;;11.80;10.25;;;32.00;63.50;;;;;;5035093;28;20351;-68
2021/07/17 07:30:15;;;;;;;12.32;10.02;;;32.00;63.10;;;;;;5034298;28;20470;-68
2021/07/17 07:32:41;;;;;;;10.52;9.52;;;32.00;63.10;;;;;;5034436;28;20075;-68
2021/07/17 07:35:07;;;;;;;11.15;10.13;;;32.00;63.20;;;;;;5034781;28;20037;-68
2021/07/17 07:37:33;;;;;;;12.27;9.25;;;32.00;63.30;;;;;;5034080;28;20112;-68
2021/07/17 07:39:59;;;;;;;11.82;9.52;;;32.00;63.10;;;;;;5032010;28;20124;-68
2021/07/17 07:42:25;;;;;;;10.55;9.55;;;32.00;62.80;;;;;;5033752;28;20029;-68
2021/07/17 07:44:51;;;;;;;9.95;9.05;;;32.00;63.00;;;;;;5034747;28;20481;-68
2021/07/17 07:47:18;;;;;;;10.65;9.63;;;31.90;62.70;;;;;;5034227;28;20469;-68
2021/07/17 07:49:44;;;;;;;10.60;9.60;;;31.90;62.80;;;;;;5032869;28;20079;-68
2021/07/17 07:52:10;;;;;;;9.93;8.93;;;31.90;62.90;;;;;;5033549;28;20109;-68
2021/07/17 07:54:36;;;;;;;10.23;9.23;;;31.90;62.80;;;;;;5034381;28;20544;-68
2021/07/17 07:57:02;;;;;;;10.40;9.15;;;31.90;63.10;;;;;;5033752;28;20025;-68
2021/07/17 07:59:28;;;;;;;10.40;9.27;;;31.90;63.00;;;;;;5033127;28;20033;-68
2021/07/17 08:01:53;;;;;;;10.80;9.48;;;31.90;63.00;;;;;;5033332;28;20033;-68
2021/07/17 08:04:19;;;;;;;9.80;8.90;;;31.90;62.90;;;;;;5033263;28;20501;-68
2021/07/17 08:06:45;;;;;;;9.88;8.88;;;31.90;63.10;;;;;;5032385;28;20485;-68
2021/07/17 08:09:10;;;;;;;9.77;8.70;;;31.90;63.10;;;;;;5034625;28;20418;-68
2021/07/17 08:11:36;;;;;;;9.27;8.38;;;31.90;63.00;;;;;;5032921;28;20023;-68
2021/07/17 08:14:02;;;;;;;10.98;9.43;;;31.90;63.40;;;;;;5019662;28;20125;-68
2021/07/17 08:16:27;;;;;;;9.48;8.52;;;32.00;63.40;;;;;;5034582;28;20466;-68
2021/07/17 08:18:53;;;;;;;10.63;8.45;;;31.90;63.00;;;;;;5028749;28;20520;-68
2021/07/17 08:21:19;;;;;;;10.55;8.75;;;31.90;62.80;;;;;;5034608;28;20021;-68
2021/07/17 08:23:45;;;;;;;10.15;9.10;;;31.90;62.60;;;;;;5031742;28;20037;-68
2021/07/17 08:26:12;;;;;;;9.52;8.55;;;31.90;62.60;;;;;;5029346;28;20033;-68
2021/07/17 08:28:38;;;;;;;9.52;8.60;;;31.90;62.60;;;;;;5033700;28;20028;-68
2021/07/17 08:31:03;;;;;;;9.95;8.98;;;32.00;62.60;;;;;;5033656;28;20033;-68
2021/07/17 08:33:29;;;;;;;9.43;8.25;;;32.00;62.50;;;;;;5033510;28;20025;-68
2021/07/17 08:35:55;;;;;;;8.57;7.70;;;32.00;62.30;;;;;;5032556;28;20033;-68
2021/07/17 08:38:20;;;;;;;8.57;7.75;;;32.00;62.30;;;;;;5033320;28;20034;-68
2021/07/17 08:40:53;;;;;;;8.93;8.02;;;32.00;62.30;;;;;;5030635;28;20056;-68
2021/07/17 08:43:20;;;;;;;8.98;8.18;;;32.00;62.00;;;;;;5030976;28;20033;-68
2021/07/17 08:45:47;;;;;;;11.88;8.68;;;32.00;62.80;;;;;;5034749;28;20083;-68
2021/07/17 08:48:14;;;;;;;8.68;7.72;;;32.00;61.50;;;;;;5034331;28;20511;-68
2021/07/17 08:50:40;;;;;;;7.95;7.20;;;32.00;61.40;;;;;;5027754;28;20064;-68
2021/07/17 08:53:06;;;;;;;8.73;7.80;;;32.00;61.10;;;;;;5029646;28;20027;-68
2021/07/17 08:55:33;;;;;;;8.40;7.60;;;32.00;61.30;;;;;;5027777;28;20036;-68
2021/07/17 08:58:00;;;;;;;8.20;7.40;;;32.00;61.30;;;;;;5031883;28;20502;-68
2021/07/17 09:00:30;;;;;;;8.73;7.93;;;32.00;61.30;;;;;;5031274;28;20433;-68
2021/07/17 09:03:01;;;;;;;8.57;7.57;;;32.00;61.20;;;;;;5031848;28;20082;-68
2021/07/17 09:05:30;;;;;;;8.57;7.75;;;32.00;61.20;;;;;;5030505;28;20030;-68
2021/07/17 09:07:56;;;;;;;8.85;7.95;;;32.00;60.90;;;;;;5028624;28;20018;-68
2021/07/17 09:10:30;;;;;;;9.13;7.95;;;32.00;60.40;;;;;;5025955;28;20031;-68
2021/07/17 09:13:22;;;;;;;8.95;7.45;;;32.00;60.30;;;;;;5033644;28;20025;-68
2021/07/17 09:15:48;;;;;;;9.38;7.72;;;32.00;60.20;;;;;;5028772;28;20033;-68
2021/07/17 09:18:36;;;;;;;8.32;7.53;;;31.90;60.30;;;;;;5033632;28;20026;-68
2021/07/17 09:21:21;;;;;;;9.82;7.57;;;31.90;60.60;;;;;;5020078;28;20044;-68
2021/07/17 09:23:52;;;;;;;7.55;6.85;;;31.90;60.40;;;;;;5032854;28;20132;-68
2021/07/17 09:26:20;;;;;;;8.20;7.40;;;31.90;60.30;;;;;;5030494;28;20093;-68
2021/07/17 09:29:00;;;;;;;8.15;7.35;;;31.90;60.40;;;;;;5034053;28;20045;-68
2021/07/17 09:31:28;;;;;;;7.88;7.18;;;31.90;60.10;;;;;;5031700;28;20037;-68
2021/07/17 09:34:09;;;;;;;7.68;6.90;;;31.90;60.00;;;;;;5031039;28;20029;-68
2021/07/17 09:36:49;;;;;;;8.23;7.20;;;31.90;60.10;;;;;;5025434;28;20060;-68
2021/07/17 09:39:16;;;;;;;8.00;7.30;;;31.90;59.50;;;;;;5032147;28;20026;-68
2021/07/17 09:41:59;;;;;;;8.85;7.93;;;31.90;59.30;;;;;;5036254;28;20415;-68
2021/07/17 09:44:26;;;;;;;13.38;7.13;;;31.90;59.50;;;;;;5041406;28;20055;-68
2021/07/17 09:46:52;;;;;;;9.32;6.95;;;31.80;59.30;;;;;;5045098;28;20388;-68
2021/07/17 09:49:19;;;;;;;7.40;6.60;;;31.80;59.40;;;;;;5024602;28;20026;-68
2021/07/17 09:51:45;;;;;;;9.32;6.68;;;31.80;59.20;;;;;;5028572;28;20427;-68
2021/07/17 09:54:11;;;;;;;7.40;6.70;;;31.80;58.90;;;;;;5036521;28;20212;-68
2021/07/17 09:56:40;;;;;;;7.95;7.15;;;31.80;58.80;;;;;;5031476;28;20120;-68
2021/07/17 09:59:09;;;;;;;9.38;7.50;;;31.80;59.10;;;;;;5039448;28;20075;-68
2021/07/17 10:01:38;;;;;;;7.32;6.63;;;31.80;58.90;;;;;;5016327;28;20053;-68
2021/07/17 10:04:08;;;;;;;8.60;7.10;;;31.80;59.10;;;;;;5025782;28;20512;-68
2021/07/17 10:07:00;;;;;;;8.57;7.72;;;31.80;59.00;;;;;;5034003;28;20036;-68
2021/07/17 10:09:35;;;;;;;6.97;6.38;;;31.80;59.10;;;;;;5031291;28;20052;-68
2021/07/17 10:12:02;;;;;;;7.57;6.88;;;31.70;59.10;;;;;;5036509;28;20021;-68
2021/07/17 10:14:30;;;;;;;7.20;6.50;;;31.70;59.50;;;;;;5029168;28;20048;-68
2021/07/17 10:16:58;;;;;;;7.80;7.10;;;31.70;59.80;;;;;;5035484;28;20053;-68
2021/07/17 10:19:27;;;;;;;7.80;7.03;;;31.70;59.90;;;;;;5036406;28;20054;-68
2021/07/17 10:21:54;;;;;;;8.23;7.43;;;31.70;59.60;;;;;;5041390;28;20035;-68
2021/07/17 10:24:21;;;;;;;8.10;7.30;;;31.70;59.60;;;;;;5039445;28;20060;-68
2021/07/17 10:26:49;;;;;;;8.18;7.38;;;31.80;59.30;;;;;;5045554;28;20036;-68
2021/07/17 10:29:19;;;;;;;7.78;6.97;;;31.80;59.10;;;;;;5036607;28;20041;-68
2021/07/17 10:31:46;;;;;;;8.10;7.38;;;31.80;59.30;;;;;;5029838;28;20020;-68
2021/07/17 10:34:13;;;;;;;8.52;7.75;;;31.80;59.10;;;;;;5042710;28;20389;-68
2021/07/17 10:36:55;;;;;;;8.60;7.07;;;31.70;58.80;;;;;;5042994;28;20032;-68
2021/07/17 10:39:27;;;;;;;7.53;6.82;;;31.70;58.70;;;;;;5029669;28;20030;-68
2021/07/17 10:41:54;;;;;;;8.60;7.22;;;31.70;58.70;;;;;;5040036;28;20031;-68
2021/07/17 10:44:39;;;;;;;8.55;7.65;;;31.70;58.80;;;;;;5040232;28;20029;-68
2021/07/17 10:47:07;;;;;;;7.88;7.18;;;31.70;58.50;;;;;;5032450;28;20045;-68
2021/07/17 10:49:47;;;;;;;7.70;7.00;;;31.70;58.70;;;;;;5028215;28;20025;-68
2021/07/17 10:52:13;;;;;;;8.30;7.45;;;31.70;58.80;;;;;;5043008;28;20029;-68
2021/07/17 10:54:39;;;;;;;7.97;7.18;;;31.70;59.20;;;;;;5042427;28;20096;-68
2021/07/17 10:57:06;;;;;;;8.07;7.28;;;31.70;59.20;;;;;;5052015;28;20435;-68
2021/07/17 10:59:32;;;;;;;8.73;7.13;;;31.70;59.30;;;;;;5038570;28;20090;-68
2021/07/17 11:02:02;;;;;;;7.78;7.07;;;31.70;58.70;;;;;;5037274;28;20025;-68
2021/07/17 11:04:46;;;;;;;;;;;31.70;59.00;;;;;;5033756;28;20029;-68
2021/07/17 11:07:18;;;;;;;8.38;6.97;;;31.60;59.00;;;;;;5035757;28;19909;-68
2021/07/17 11:09:54;;;;;;;7.82;6.97;;;31.70;59.00;;;;;;5031723;28;20481;-68
2021/07/17 11:12:27;;;;;;;7.90;7.20;;;31.70;59.30;;;;;;5038736;28;20359;-68
2021/07/17 11:15:07;;;;;;;9.27;7.93;;;31.70;58.90;;;;;;5049837;28;20075;-68
2021/07/17 11:17:56;;;;;;;8.52;7.65;;;31.80;58.70;;;;;;5032526;28;20083;-68
2021/07/17 11:20:34;;;;;;;7.93;7.22;;;31.80;58.30;;;;;;5029861;28;20073;-68
2021/07/17 11:23:01;;;;;;;10.70;9.50;;;31.80;58.00;;;;;;5049919;28;20025;-68
2021/07/17 11:25:27;;;;;;;8.80;8.00;;;31.80;57.90;;;;;;5037529;28;20032;-68
2021/07/17 11:27:53;;;;;;;9.68;7.60;;;31.80;57.60;;;;;;5052896;28;20047;-68
2021/07/17 11:30:20;;;;;;;8.57;7.68;;;31.80;58.10;;;;;;5029103;28;20389;-68
2021/07/17 11:33:04;;;;;;;7.75;7.05;;;31.80;58.00;;;;;;5048474;28;20017;-68
2021/07/17 11:35:34;;;;;;;7.65;6.88;;;31.80;57.80;;;;;;5036896;28;20037;-68
2021/07/17 11:38:00;;;;;;;7.72;6.93;;;31.80;57.90;;;;;;5049633;28;20017;-68
2021/07/17 11:40:26;;;;;;;8.80;7.53;;;31.80;58.10;;;;;;5035791;28;20030;-68
2021/07/17 11:42:58;;;;;;;9.50;7.40;;;31.90;57.80;;;;;;5039681;28;20380;-68
2021/07/17 11:45:24;;;;;;;8.02;7.22;;;31.90;57.80;;;;;;5043191;28;20095;-68
2021/07/17 11:47:50;;;;;;;7.57;6.88;;;31.90;57.70;;;;;;5047001;28;20033;-68
2021/07/17 11:50:16;;;;;;;7.57;6.88;;;31.90;57.60;;;;;;5043813;28;20366;-68
2021/07/17 11:52:41;;;;;;;7.75;7.03;;;31.90;57.60;;;;;;5040968;28;20096;-68
2021/07/17 11:55:09;;;;;;;8.10;7.30;;;31.90;58.00;;;;;;5033870;28;20515;-68
2021/07/17 11:57:36;;;;;;;7.80;7.00;;;31.80;57.90;;;;;;5030629;28;20021;-68
2021/07/17 12:00:15;;;;;;;7.53;6.78;;;31.90;57.70;;;;;;5029647;28;20063;-68
2021/07/17 12:02:42;;;;;;;8.57;7.68;;;31.70;57.20;;;;;;5036195;28;20358;-68
2021/07/17 12:05:11;;;;;;;7.70;6.95;;;31.70;57.20;;;;;;5032394;28;20037;-68
2021/07/17 12:07:39;;;;;;;7.75;7.07;;;31.70;57.70;;;;;;5022205;28;20025;-68
2021/07/17 12:10:10;;;;;;;7.88;7.18;;;31.60;58.00;;;;;;5033963;28;20021;-68
2021/07/17 12:12:42;;;;;;;7.53;6.82;;;31.60;58.40;;;;;;5033675;28;20037;-68
2021/07/17 12:15:30;;;;;;;8.32;7.53;;;31.60;58.30;;;;;;5033724;28;20029;-68
2021/07/17 12:17:58;;;;;;;7.22;6.53;;;31.60;58.50;;;;;;5033205;28;20401;-68
2021/07/17 12:20:27;;;;;;;7.95;7.22;;;31.60;58.70;;;;;;5043046;28;20048;-68
2021/07/17 12:23:05;;;;;;;9.07;7.70;;;31.60;59.00;;;;;;5039803;28;20033;-68
2021/07/17 12:25:32;;;;;;;8.32;7.53;;;31.60;59.60;;;;;;5034922;28;20094;-68
2021/07/17 12:27:59;;;;;;;8.85;7.95;;;31.60;59.70;;;;;;5050241;28;20025;-68
2021/07/17 12:30:28;;;;;;;8.52;7.70;;;31.60;59.70;;;;;;5023592;28;20036;-68
2021/07/17 12:33:12;;;;;;;8.55;7.65;;;31.60;59.60;;;;;;5035728;28;20419;-68
2021/07/17 12:35:38;;;;;;;10.70;7.95;;;31.60;59.30;;;;;;5022036;28;20028;-68
2021/07/17 12:38:33;;;;;;;9.27;7.85;;;31.60;59.60;;;;;;5046358;28;20116;-68
2021/07/17 12:41:14;;;;;;;8.73;7.93;;;31.60;59.60;;;;;;5031183;28;20051;-68